Time;durP1;ratioP1;P1;durP2;ratioP2;P2;SDS_P1;SDS_P2;PMS_P1;PMS_P2;Temp;Humidity;BMP_temperature;BMP_pressure;BME280_temperature;BME280_humidity;BME280_pressure;Samples;Min_cycle;Max_cycle;Signal;HPM_P1;HPM_P2
2024/02/01 00:02:16;;;;;;;9.45;4.80;;;7.20;99.90;;;;;;4981476;28;20235;-61
2024/02/01 00:04:45;;;;;;;4.70;4.28;;;7.20;99.90;;;;;;4981168;28;20237;-59
2024/02/01 00:07:11;;;;;;;6.55;6.05;;;7.30;99.90;;;;;;4979579;28;20218;-61
2024/02/01 00:09:38;;;;;;;5.10;4.70;;;7.30;99.90;;;;;;4987536;28;20219;-61
2024/02/01 00:12:06;;;;;;;4.82;4.43;;;7.50;99.90;;;;;;4977713;28;20213;-61
2024/02/01 00:14:33;;;;;;;6.25;5.00;;;7.60;99.90;;;;;;4986962;28;20322;-61
2024/02/01 00:16:59;;;;;;;4.95;4.47;;;7.60;99.90;;;;;;4987103;28;20216;-61
2024/02/01 00:19:26;;;;;;;5.57;5.05;;;7.80;99.90;;;;;;4979925;28;20228;-61
2024/02/01 00:21:54;;;;;;;4.35;3.95;;;7.90;99.90;;;;;;4982270;28;20220;-61
2024/02/01 00:24:21;;;;;;;4.97;4.43;;;7.90;99.90;;;;;;4988030;28;20236;-61
2024/02/01 00:26:48;;;;;;;6.77;5.43;;;8.00;99.90;;;;;;4987917;28;20691;-61
2024/02/01 00:29:15;;;;;;;5.13;4.63;;;8.10;99.90;;;;;;4982796;28;20454;-60
2024/02/01 00:31:42;;;;;;;5.63;5.13;;;8.20;99.90;;;;;;4985078;28;20460;-61
2024/02/01 00:34:09;;;;;;;5.30;4.80;;;8.20;99.90;;;;;;4980435;28;20473;-60
2024/02/01 00:36:35;;;;;;;5.57;4.40;;;8.20;99.90;;;;;;4982130;28;20263;-61
2024/02/01 00:39:04;;;;;;;4.95;4.47;;;8.20;99.90;;;;;;4984185;28;20494;-60
2024/02/01 00:41:30;;;;;;;5.20;4.70;;;8.20;99.90;;;;;;4978740;28;20219;-61
2024/02/01 00:43:57;;;;;;;6.13;4.53;;;8.20;99.90;;;;;;4977618;28;20347;-61
2024/02/01 00:46:24;;;;;;;5.07;4.57;;;8.30;99.90;;;;;;4981853;28;20440;-60
2024/02/01 00:48:51;;;;;;;5.03;4.25;;;8.30;99.90;;;;;;4987775;28;20219;-61
2024/02/01 00:51:18;;;;;;;8.10;4.47;;;8.30;99.90;;;;;;4983497;28;20676;-61
2024/02/01 00:53:44;;;;;;;6.57;5.80;;;8.30;99.90;;;;;;4986389;28;20467;-61
2024/02/01 00:56:13;;;;;;;4.40;4.10;;;8.30;99.90;;;;;;4980893;28;20703;-61
2024/02/01 00:58:40;;;;;;;5.10;4.67;;;8.30;99.90;;;;;;4986450;28;20557;-60
2024/02/01 01:01:07;;;;;;;6.57;4.80;;;8.30;99.90;;;;;;4986995;28;20447;-61
2024/02/01 01:03:34;;;;;;;5.33;4.80;;;8.30;99.90;;;;;;4980580;28;20228;-61
2024/02/01 01:06:01;;;;;;;4.60;4.07;;;8.30;99.90;;;;;;4983479;28;20452;-61
2024/02/01 01:08:28;;;;;;;4.53;4.13;;;8.30;99.90;;;;;;4990797;28;20208;-61
2024/02/01 01:10:55;;;;;;;6.00;4.70;;;8.30;99.90;;;;;;4990955;28;20212;-59
2024/02/01 01:13:23;;;;;;;4.15;3.60;;;8.30;99.90;;;;;;4990482;28;20596;-60
2024/02/01 01:15:50;;;;;;;5.30;4.90;;;8.30;99.90;;;;;;4985298;28;20963;-61
2024/02/01 01:18:17;;;;;;;6.17;4.40;;;8.30;99.90;;;;;;4988345;28;20451;-62
2024/02/01 01:20:44;;;;;;;5.22;4.80;;;8.30;99.90;;;;;;4990885;28;20483;-61
2024/02/01 01:23:10;;;;;;;5.37;4.60;;;8.30;99.90;;;;;;4989368;28;20234;-61
2024/02/01 01:25:37;;;;;;;4.63;4.22;;;8.20;99.90;;;;;;4991014;28;20611;-61
2024/02/01 01:28:04;;;;;;;4.60;4.20;;;8.20;99.90;;;;;;4988947;28;20218;-61
2024/02/01 01:30:33;;;;;;;5.78;4.72;;;8.20;99.90;;;;;;4988879;28;20208;-61
2024/02/01 01:32:59;;;;;;;4.95;4.55;;;8.20;99.90;;;;;;4985958;28;20240;-59
2024/02/01 01:35:26;;;;;;;4.37;4.07;;;8.10;99.90;;;;;;4987919;28;20586;-61
2024/02/01 01:37:54;;;;;;;5.13;4.50;;;8.10;99.90;;;;;;4990883;28;20518;-59
2024/02/01 01:40:21;;;;;;;6.65;5.25;;;8.10;99.90;;;;;;4983417;28;20501;-61
2024/02/01 01:42:48;;;;;;;4.20;3.60;;;8.10;99.90;;;;;;4990197;28;20232;-61
2024/02/01 01:45:16;;;;;;;4.78;4.38;;;8.10;99.90;;;;;;4990893;28;20560;-61
2024/02/01 01:47:44;;;;;;;3.88;3.20;;;8.00;99.90;;;;;;4983887;28;20239;-60
2024/02/01 01:50:12;;;;;;;4.75;4.00;;;8.00;99.90;;;;;;4990969;28;20295;-60
2024/02/01 01:52:40;;;;;;;3.63;3.42;;;8.00;99.90;;;;;;4989124;28;20216;-60
2024/02/01 01:55:09;;;;;;;5.53;3.70;;;8.10;99.90;;;;;;4991146;28;20783;-61
2024/02/01 01:57:36;;;;;;;5.60;3.50;;;8.00;99.90;;;;;;4990608;28;20216;-61
2024/02/01 02:00:04;;;;;;;3.20;3.00;;;8.00;99.90;;;;;;4991209;28;20491;-61
2024/02/01 02:02:33;;;;;;;3.55;3.22;;;8.00;99.90;;;;;;4990773;28;20467;-58
2024/02/01 02:05:02;;;;;;;3.17;2.45;;;8.00;99.90;;;;;;4990765;28;20220;-61
2024/02/01 02:07:29;;;;;;;3.22;3.03;;;8.10;99.90;;;;;;4991156;28;20224;-61
2024/02/01 02:10:00;;;;;;;3.75;3.38;;;8.10;99.90;;;;;;4991110;28;20212;-60
2024/02/01 02:12:27;;;;;;;3.28;3.08;;;8.10;99.90;;;;;;4990357;28;20216;-61
2024/02/01 02:15:01;;;;;;;3.60;3.30;;;8.10;99.90;;;;;;4991056;28;20259;-61
2024/02/01 02:17:28;;;;;;;3.87;3.57;;;8.10;99.90;;;;;;4990985;28;20683;-61
2024/02/01 02:19:55;;;;;;;4.05;3.70;;;8.10;99.90;;;;;;4989654;28;20513;-61
2024/02/01 02:22:24;;;;;;;3.08;2.78;;;8.10;99.90;;;;;;4990112;28;20219;-61
2024/02/01 02:24:51;;;;;;;3.90;3.50;;;8.10;99.90;;;;;;4990829;28;20212;-61
2024/02/01 02:27:20;;;;;;;4.00;3.65;;;8.00;99.90;;;;;;4990894;28;20216;-61
2024/02/01 02:29:47;;;;;;;3.95;3.65;;;8.00;99.90;;;;;;4990700;28;20213;-61
2024/02/01 02:32:14;;;;;;;3.50;2.80;;;8.10;99.90;;;;;;4990393;28;20222;-61
2024/02/01 02:34:41;;;;;;;3.70;3.40;;;8.10;99.90;;;;;;5026091;22;20243;-59
2024/02/01 02:37:08;;;;;;;3.38;2.97;;;8.10;99.90;;;;;;5010204;28;20969;-60
2024/02/01 02:39:37;;;;;;;4.30;3.45;;;8.10;99.90;;;;;;5009782;28;20228;-59
2024/02/01 02:42:04;;;;;;;2.90;2.70;;;8.10;99.90;;;;;;5008650;28;20220;-59
2024/02/01 02:44:31;;;;;;;5.15;3.13;;;8.10;99.90;;;;;;5009624;28;20231;-58
2024/02/01 02:46:58;;;;;;;3.35;3.05;;;8.10;99.90;;;;;;5010151;28;20298;-59
2024/02/01 02:49:25;;;;;;;3.83;3.33;;;8.10;99.90;;;;;;5009728;28;20219;-59
2024/02/01 02:51:52;;;;;;;2.78;2.58;;;8.10;99.90;;;;;;5009410;28;20302;-59
2024/02/01 02:54:18;;;;;;;4.30;2.90;;;8.20;99.90;;;;;;5009764;28;20232;-60
2024/02/01 02:56:47;;;;;;;3.15;2.90;;;8.20;99.90;;;;;;5009915;28;20450;-60
2024/02/01 02:59:14;;;;;;;3.10;2.80;;;8.20;99.90;;;;;;5009298;28;20705;-59
2024/02/01 03:01:42;;;;;;;4.45;2.88;;;8.10;99.90;;;;;;5009301;28;20530;-60
2024/02/01 03:04:09;;;;;;;3.17;2.97;;;8.10;99.90;;;;;;5009647;28;20236;-60
2024/02/01 03:06:35;;;;;;;2.50;2.30;;;8.10;99.90;;;;;;5010007;28;20218;-58
2024/02/01 03:09:02;;;;;;;3.38;3.17;;;8.10;99.90;;;;;;5009602;28;20204;-60
2024/02/01 03:11:29;;;;;;;3.10;2.90;;;8.10;99.90;;;;;;5009117;28;20638;-56
2024/02/01 03:13:57;;;;;;;2.80;2.55;;;8.10;99.90;;;;;;5009660;28;20470;-59
2024/02/01 03:16:24;;;;;;;2.72;2.53;;;8.20;99.90;;;;;;5009996;28;20245;-59
2024/02/01 03:18:51;;;;;;;2.67;2.40;;;8.10;99.90;;;;;;5009151;28;20706;-60
2024/02/01 03:21:19;;;;;;;3.80;3.50;;;8.20;99.90;;;;;;5009023;28;20216;-60
2024/02/01 03:23:47;;;;;;;2.83;2.63;;;8.20;99.90;;;;;;5009365;28;20615;-59
2024/02/01 03:26:14;;;;;;;3.47;3.28;;;8.20;99.90;;;;;;5009135;28;20447;-58
2024/02/01 03:28:43;;;;;;;2.60;2.40;;;8.20;99.90;;;;;;5009165;28;20220;-59
2024/02/01 03:31:11;;;;;;;2.47;2.33;;;8.20;99.90;;;;;;5008646;28;20216;-59
2024/02/01 03:33:39;;;;;;;4.05;2.70;;;8.20;99.90;;;;;;5009237;28;20622;-59
2024/02/01 03:36:08;;;;;;;3.03;2.83;;;8.20;99.90;;;;;;5009146;28;20226;-58
2024/02/01 03:38:35;;;;;;;5.53;3.85;;;8.20;99.90;;;;;;5009034;28;20560;-60
2024/02/01 03:41:02;;;;;;;6.70;3.17;;;8.20;99.90;;;;;;5008753;28;20235;-59
2024/02/01 03:43:29;;;;;;;2.47;2.38;;;8.20;99.90;;;;;;5009309;28;20470;-60
2024/02/01 03:45:57;;;;;;;3.10;2.80;;;8.20;99.90;;;;;;5009246;28;20241;-59
2024/02/01 03:48:25;;;;;;;2.60;2.40;;;8.20;99.90;;;;;;5008807;28;20457;-59
2024/02/01 03:50:52;;;;;;;3.27;2.73;;;8.20;99.90;;;;;;5008449;28;20452;-60
2024/02/01 03:53:20;;;;;;;2.00;1.90;;;8.20;99.90;;;;;;5008772;28;20537;-59
2024/02/01 03:55:48;;;;;;;3.30;2.77;;;8.20;99.90;;;;;;5008775;28;20215;-58
2024/02/01 03:58:16;;;;;;;2.92;2.67;;;8.20;99.90;;;;;;5008833;28;20823;-60
2024/02/01 04:00:44;;;;;;;2.80;2.60;;;8.20;99.90;;;;;;5008440;28;21034;-60
2024/02/01 04:03:14;;;;;;;3.47;3.23;;;8.20;99.90;;;;;;5008713;28;20761;-59
2024/02/01 04:05:44;;;;;;;2.53;2.43;;;8.20;99.90;;;;;;5008851;28;20454;-60
2024/02/01 04:08:12;;;;;;;2.40;1.95;;;8.20;99.90;;;;;;5008839;28;20459;-60
2024/02/01 04:10:39;;;;;;;5.37;2.40;;;8.20;99.90;;;;;;5008502;28;20208;-58
2024/02/01 04:13:07;;;;;;;2.92;2.55;;;8.20;99.90;;;;;;5009111;28;20830;-57
2024/02/01 04:15:35;;;;;;;2.92;2.58;;;8.20;99.90;;;;;;5009151;28;20682;-58
2024/02/01 04:18:03;;;;;;;5.10;2.50;;;8.20;99.90;;;;;;5008598;28;20215;-61
2024/02/01 04:20:30;;;;;;;3.05;2.72;;;8.20;99.90;;;;;;5008144;28;20286;-59
2024/02/01 04:22:59;;;;;;;2.38;2.17;;;8.30;99.90;;;;;;5008851;28;20215;-60
2024/02/01 04:25:26;;;;;;;2.27;2.07;;;8.30;99.90;;;;;;5008540;28;20234;-59
2024/02/01 04:27:54;;;;;;;3.20;3.00;;;8.20;99.90;;;;;;5007973;28;20541;-61
2024/02/01 04:30:23;;;;;;;1.90;1.80;;;8.20;99.90;;;;;;5008638;28;20447;-59
2024/02/01 04:32:51;;;;;;;3.03;2.72;;;8.20;99.90;;;;;;5008457;28;20299;-60
2024/02/01 04:35:18;;;;;;;2.72;2.60;;;8.20;99.90;;;;;;5007902;28;20845;-60
2024/02/01 04:37:45;;;;;;;3.40;2.70;;;8.20;99.90;;;;;;5008359;28;20208;-58
2024/02/01 04:40:13;;;;;;;3.30;3.00;;;8.20;99.90;;;;;;5008396;28;20245;-58
2024/02/01 04:42:40;;;;;;;2.88;2.67;;;8.20;99.90;;;;;;5010271;28;20223;-57
2024/02/01 04:45:09;;;;;;;3.42;2.70;;;8.10;99.90;;;;;;5012362;28;20232;-58
2024/02/01 04:47:37;;;;;;;2.83;2.65;;;8.20;99.90;;;;;;5012471;28;20694;-59
2024/02/01 04:50:06;;;;;;;3.00;2.70;;;8.10;99.90;;;;;;5012324;28;20612;-58
2024/02/01 04:52:34;;;;;;;3.47;2.85;;;8.10;99.90;;;;;;5009046;28;20212;-59
2024/02/01 04:55:03;;;;;;;7.72;2.90;;;8.00;99.90;;;;;;5011998;28;20239;-58
2024/02/01 04:57:31;;;;;;;4.18;3.22;;;8.00;99.90;;;;;;5011991;28;20216;-59
2024/02/01 04:59:58;;;;;;;3.50;3.30;;;8.00;99.90;;;;;;5011629;28;20235;-59
2024/02/01 05:02:24;;;;;;;3.08;2.70;;;7.90;99.90;;;;;;5011625;28;20209;-58
2024/02/01 05:04:51;;;;;;;4.60;3.97;;;7.90;99.90;;;;;;5011928;28;20242;-58
2024/02/01 05:07:18;;;;;;;3.15;2.92;;;7.80;99.90;;;;;;5011948;28;20222;-60
2024/02/01 05:09:45;;;;;;;3.00;2.70;;;7.80;99.90;;;;;;5011639;28;20595;-59
2024/02/01 05:12:12;;;;;;;3.92;3.20;;;7.80;99.90;;;;;;5011493;28;20216;-57
2024/02/01 05:14:40;;;;;;;3.05;2.72;;;7.70;99.90;;;;;;5011763;28;20242;-57
2024/02/01 05:17:07;;;;;;;4.10;2.72;;;7.70;99.90;;;;;;5012020;28;20306;-58
2024/02/01 05:19:36;;;;;;;2.80;2.60;;;7.70;99.90;;;;;;5011667;28;20211;-58
2024/02/01 05:22:07;;;;;;;3.55;3.20;;;7.60;99.90;;;;;;5011328;28;20705;-59
2024/02/01 05:24:34;;;;;;;2.83;2.63;;;7.60;99.90;;;;;;5011465;28;20232;-57
2024/02/01 05:27:07;;;;;;;3.65;2.97;;;7.60;99.90;;;;;;5011765;28;20314;-57
2024/02/01 05:29:35;;;;;;;6.03;3.72;;;7.50;99.90;;;;;;5011337;28;20688;-54
2024/02/01 05:32:06;;;;;;;5.60;4.32;;;7.50;99.90;;;;;;5010835;28;20306;-56
2024/02/01 05:34:33;;;;;;;3.47;3.17;;;7.50;99.90;;;;;;5010646;28;20236;-58
2024/02/01 05:37:00;;;;;;;4.60;3.50;;;7.50;99.90;;;;;;5010071;28;20219;-59
2024/02/01 05:39:27;;;;;;;5.70;3.05;;;7.50;99.90;;;;;;5009874;28;20219;-58
2024/02/01 05:41:55;;;;;;;5.40;3.70;;;7.50;99.90;;;;;;5009878;28;20212;-58
2024/02/01 05:44:23;;;;;;;3.17;2.97;;;7.50;99.90;;;;;;5010212;28;20807;-59
2024/02/01 05:46:53;;;;;;;4.03;3.72;;;7.50;99.90;;;;;;5010205;28;20987;-55
2024/02/01 05:49:22;;;;;;;4.35;3.92;;;7.50;99.90;;;;;;5010158;28;20218;-60
2024/02/01 05:51:49;;;;;;;3.30;3.10;;;7.50;99.90;;;;;;5009889;28;20207;-57
2024/02/01 05:54:17;;;;;;;6.15;4.45;;;7.50;99.90;;;;;;5008879;28;20227;-59
2024/02/01 05:56:45;;;;;;;4.45;3.65;;;7.50;99.90;;;;;;5010011;28;20595;-59
2024/02/01 05:59:13;;;;;;;3.85;3.53;;;7.50;99.90;;;;;;5009675;28;20303;-60
2024/02/01 06:01:40;;;;;;;4.20;3.80;;;7.50;99.90;;;;;;5009293;28;20946;-60
2024/02/01 06:04:07;;;;;;;4.15;3.80;;;7.50;99.90;;;;;;5009676;28;20240;-59
2024/02/01 06:06:37;;;;;;;5.25;4.30;;;7.50;99.90;;;;;;5009933;28;20310;-59
2024/02/01 06:09:05;;;;;;;3.95;3.55;;;7.50;99.90;;;;;;5009506;28;20212;-60
2024/02/01 06:11:32;;;;;;;4.30;3.90;;;7.50;99.90;;;;;;5009242;28;20216;-60
2024/02/01 06:13:59;;;;;;;4.20;2.97;;;7.50;99.90;;;;;;5009576;28;20234;-58
2024/02/01 06:16:25;;;;;;;4.50;4.20;;;7.50;99.90;;;;;;5009747;28;20207;-59
2024/02/01 06:18:52;;;;;;;5.85;4.47;;;7.40;99.90;;;;;;5009431;28;20208;-59
2024/02/01 06:21:19;;;;;;;4.97;4.60;;;7.40;99.90;;;;;;5009332;28;20263;-60
2024/02/01 06:23:47;;;;;;;7.35;4.55;;;7.40;99.90;;;;;;5009709;28;20231;-58
2024/02/01 06:26:21;;;;;;;3.70;3.40;;;7.40;99.90;;;;;;5009535;28;20218;-58
2024/02/01 06:28:48;;;;;;;9.52;4.85;;;7.40;99.90;;;;;;5009307;28;20215;-59
2024/02/01 06:31:15;;;;;;;4.80;4.40;;;7.40;99.90;;;;;;5008751;28;20665;-60
2024/02/01 06:33:42;;;;;;;5.53;4.00;;;7.40;99.90;;;;;;4969680;28;1146980;-59
2024/02/01 06:36:13;;;;;;;5.20;4.47;;;7.40;99.90;;;;;;5010301;28;20212;-59
2024/02/01 06:39:06;;;;;;;6.20;4.60;;;7.40;99.90;;;;;;5009134;28;20216;-59
2024/02/01 06:41:46;;;;;;;4.60;4.20;;;7.40;99.90;;;;;;5009183;28;20718;-57
2024/02/01 06:44:22;;;;;;;4.80;4.32;;;7.40;99.90;;;;;;5009441;28;20804;-57
2024/02/01 06:47:05;;;;;;;6.22;5.72;;;7.40;99.90;;;;;;5009356;28;20207;-58
2024/02/01 06:49:59;;;;;;;4.30;3.90;;;7.40;99.90;;;;;;5004202;28;20589;-60
2024/02/01 06:52:38;;;;;;;5.45;4.43;;;7.30;99.90;;;;;;5009802;28;20302;-60
2024/02/01 06:55:36;;;;;;;4.18;3.80;;;7.30;99.90;;;;;;5010183;28;20318;-59
2024/02/01 06:58:05;;;;;;;5.45;3.80;;;7.30;99.90;;;;;;5009667;28;20306;-59
2024/02/01 07:00:40;;;;;;;5.07;4.53;;;7.30;99.90;;;;;;5012917;28;20226;-57
2024/02/01 07:03:13;;;;;;;5.03;4.57;;;7.30;99.90;;;;;;5029638;28;20206;-58
2024/02/01 07:08:45;;;;;;;5.10;4.20;;;7.30;99.90;;;;;;5013542;28;20264;-58
2024/02/01 07:11:14;;;;;;;4.45;3.50;;;7.30;99.90;;;;;;5009090;28;20261;-59
2024/02/01 07:13:58;;;;;;;4.75;3.58;;;7.30;99.90;;;;;;5009601;28;20262;-60
2024/02/01 07:16:38;;;;;;;6.38;4.43;;;7.30;99.90;;;;;;5009553;28;20207;-58
2024/02/01 07:19:13;;;;;;;7.50;3.50;;;7.30;99.90;;;;;;5009359;28;20254;-58
2024/02/01 07:24:38;;;;;;;5.15;3.78;;;7.30;99.90;;;;;;5000257;28;20742;-59
2024/02/01 07:57:50;;;;;;;3.22;2.67;;;7.40;99.90;;;;;;5008975;28;20269;-60
2024/02/01 08:00:19;;;;;;;21.60;7.97;;;7.30;99.90;;;;;;4988179;28;20228;-60
2024/02/01 08:02:52;;;;;;;18.58;9.57;;;7.30;99.90;;;;;;4988307;28;20696;-59
2024/02/01 08:08:05;;;;;;;3.30;3.10;;;7.40;99.90;;;;;;4988990;28;20207;-59
2024/02/01 08:10:32;;;;;;;3.88;3.58;;;7.40;99.90;;;;;;4988681;28;20208;-58
2024/02/01 08:13:05;;;;;;;4.38;3.95;;;7.40;99.90;;;;;;4989101;28;20208;-58
2024/02/01 08:15:32;;;;;;;3.53;3.30;;;7.40;99.90;;;;;;4988778;28;20318;-60
2024/02/01 08:18:00;;;;;;;112.13;31.02;;;7.50;99.90;;;;;;4991931;28;20657;-60
2024/02/01 08:20:28;;;;;;;6.57;3.53;;;7.50;99.90;;;;;;4992666;28;20236;-61
2024/02/01 08:22:55;;;;;;;2.55;2.45;;;7.50;99.90;;;;;;4993257;28;20302;-61
2024/02/01 08:25:21;;;;;;;3.75;2.60;;;7.50;99.90;;;;;;4992973;28;20327;-60
2024/02/01 08:27:53;;;;;;;3.08;2.88;;;7.60;99.90;;;;;;4992936;28;20208;-56
2024/02/01 08:30:20;;;;;;;3.05;2.72;;;7.60;99.90;;;;;;4994316;28;20219;-59
2024/02/01 08:32:48;;;;;;;3.05;2.72;;;7.60;99.90;;;;;;5012031;28;20214;-60
2024/02/01 08:35:17;;;;;;;2.88;2.67;;;7.60;99.90;;;;;;5034886;22;20235;-62
2024/02/01 08:37:44;;;;;;;2.78;2.58;;;7.60;99.90;;;;;;5012395;28;20207;-63
2024/02/01 08:40:17;;;;;;;2.72;2.53;;;7.60;99.90;;;;;;5012079;28;20681;-63
2024/02/01 08:42:47;;;;;;;3.25;2.70;;;7.60;99.90;;;;;;5012119;28;20250;-63
2024/02/01 08:45:15;;;;;;;148.18;40.95;;;7.60;99.90;;;;;;5011803;28;20238;-63
2024/02/01 08:47:42;;;;;;;9.27;5.90;;;7.70;99.90;;;;;;5012216;28;20214;-62
2024/02/01 08:50:10;;;;;;;3.70;3.03;;;7.70;99.90;;;;;;5002779;28;20207;-63
2024/02/01 08:52:45;;;;;;;3.88;3.58;;;7.70;99.90;;;;;;4992030;28;20216;-63
2024/02/01 08:55:13;;;;;;;4.13;2.97;;;7.80;99.90;;;;;;5001030;28;20322;-63
2024/02/01 08:57:40;;;;;;;4.82;3.75;;;7.80;99.90;;;;;;5003735;28;20662;-63
2024/02/01 09:00:21;;;;;;;4.53;4.20;;;7.80;99.90;;;;;;5003336;28;20299;-61
2024/02/01 09:03:02;;;;;;;3.75;3.17;;;7.80;99.90;;;;;;5002905;28;20238;-62
2024/02/01 09:05:30;;;;;;;5.53;5.10;;;7.80;99.90;;;;;;5010399;28;20232;-63
2024/02/01 09:07:59;;;;;;;3.35;3.05;;;7.80;99.90;;;;;;5005924;28;20223;-63
2024/02/01 09:10:26;;;;;;;3.75;3.38;;;7.90;99.90;;;;;;5006651;28;20214;-63
2024/02/01 09:12:52;;;;;;;3.33;3.03;;;7.90;99.90;;;;;;5010835;28;20208;-63
2024/02/01 09:15:19;;;;;;;9.30;7.23;;;7.90;99.90;;;;;;5010682;28;20314;-62
2024/02/01 09:17:46;;;;;;;4.27;3.97;;;8.00;99.90;;;;;;5004273;28;20912;-63
2024/02/01 09:20:18;;;;;;;4.43;4.03;;;8.00;99.90;;;;;;5008092;28;20453;-63
2024/02/01 09:22:46;;;;;;;4.53;3.90;;;8.00;99.90;;;;;;5007957;28;20485;-63
2024/02/01 09:25:14;;;;;;;3.42;3.13;;;8.00;99.90;;;;;;5009594;28;20241;-63
2024/02/01 09:27:44;;;;;;;5.45;3.45;;;8.10;99.90;;;;;;5006243;28;20603;-62
2024/02/01 09:30:11;;;;;;;3.63;3.33;;;8.10;99.90;;;;;;5008681;28;20223;-63
2024/02/01 09:32:38;;;;;;;3.30;3.10;;;8.10;99.90;;;;;;5008072;28;20204;-62
2024/02/01 09:35:05;;;;;;;2.80;2.60;;;8.10;99.90;;;;;;5011039;28;20866;-61
2024/02/01 09:37:32;;;;;;;4.38;3.88;;;8.20;99.90;;;;;;5010349;28;20218;-63
2024/02/01 09:40:01;;;;;;;4.03;3.63;;;8.20;99.90;;;;;;5010487;28;20218;-62
2024/02/01 09:42:29;;;;;;;2.30;2.20;;;8.20;99.90;;;;;;5009434;28;20402;-62
2024/02/01 09:44:58;;;;;;;3.38;3.08;;;8.20;99.90;;;;;;5009167;28;20860;-62
2024/02/01 09:47:25;;;;;;;2.80;2.60;;;8.20;99.90;;;;;;5009049;28;20591;-62
2024/02/01 09:49:55;;;;;;;2.92;2.67;;;8.30;99.90;;;;;;5007985;28;20290;-63
2024/02/01 09:52:22;;;;;;;3.10;2.90;;;8.30;99.90;;;;;;5004270;28;20216;-61
2024/02/01 09:54:49;;;;;;;3.33;2.90;;;8.30;99.90;;;;;;5008379;28;20228;-63
2024/02/01 09:57:17;;;;;;;2.53;2.33;;;8.30;99.90;;;;;;5000786;28;20555;-63
2024/02/01 09:59:45;;;;;;;2.55;2.38;;;8.30;99.90;;;;;;5004999;28;20468;-62
2024/02/01 10:02:13;;;;;;;2.17;2.07;;;8.30;99.90;;;;;;5009975;28;20239;-62
2024/02/01 10:04:40;;;;;;;4.78;4.45;;;8.40;99.90;;;;;;5009569;28;20497;-63
2024/02/01 10:07:09;;;;;;;2.72;2.53;;;8.30;99.90;;;;;;5010184;28;20219;-62
2024/02/01 10:09:37;;;;;;;2.77;2.57;;;8.40;99.90;;;;;;5008917;28;20982;-62
2024/02/01 10:12:06;;;;;;;2.47;2.30;;;8.40;99.90;;;;;;5007658;28;20461;-63
2024/02/01 10:14:37;;;;;;;2.30;2.10;;;8.50;99.90;;;;;;5007012;28;20475;-63
2024/02/01 10:17:06;;;;;;;2.70;2.50;;;8.50;99.90;;;;;;5007784;28;20204;-63
2024/02/01 10:19:36;;;;;;;2.15;2.05;;;8.50;99.90;;;;;;5008607;28;20549;-63
2024/02/01 10:22:08;;;;;;;2.77;2.53;;;8.60;99.90;;;;;;5009242;28;20591;-62
2024/02/01 10:24:44;;;;;;;2.43;2.33;;;8.70;99.90;;;;;;5008624;28;20485;-63
2024/02/01 10:27:13;;;;;;;2.20;2.10;;;8.80;99.90;;;;;;5008279;28;20477;-63
2024/02/01 10:29:42;;;;;;;2.27;2.07;;;8.80;99.90;;;;;;5008604;28;20463;-62
2024/02/01 10:32:15;;;;;;;2.30;2.10;;;8.90;99.90;;;;;;5007825;28;20947;-62
2024/02/01 10:34:49;;;;;;;1.80;1.70;;;9.00;99.90;;;;;;5008182;28;20486;-63
2024/02/01 10:37:17;;;;;;;2.43;2.33;;;9.00;99.90;;;;;;5009359;28;20442;-63
2024/02/01 10:39:51;;;;;;;1.93;1.83;;;9.10;99.90;;;;;;5007605;28;21028;-63
2024/02/01 10:42:22;;;;;;;1.87;1.70;;;9.20;99.90;;;;;;5008758;28;21140;-63
2024/02/01 10:44:54;;;;;;;1.90;1.80;;;9.40;99.90;;;;;;5004594;28;20486;-63
2024/02/01 10:47:27;;;;;;;1.57;1.47;;;9.50;99.90;;;;;;4999701;28;20462;-62
2024/02/01 10:49:56;;;;;;;2.17;2.07;;;9.50;99.90;;;;;;5005464;28;20457;-62
2024/02/01 10:52:22;;;;;;;3.53;3.10;;;9.50;99.90;;;;;;5006222;28;20848;-63
2024/02/01 10:54:50;;;;;;;2.30;2.10;;;9.60;99.90;;;;;;5008799;28;20470;-62
2024/02/01 10:57:18;;;;;;;2.57;2.37;;;9.50;99.90;;;;;;5007971;28;20458;-63
2024/02/01 10:59:47;;;;;;;1.87;1.77;;;9.60;99.90;;;;;;5008371;28;20565;-63
2024/02/01 11:02:15;;;;;;;2.30;2.20;;;9.50;99.90;;;;;;5007738;28;20486;-63
2024/02/01 11:04:46;;;;;;;2.10;2.00;;;9.60;99.90;;;;;;5008938;28;21131;-63
2024/02/01 11:07:19;;;;;;;2.27;2.10;;;9.50;99.90;;;;;;5007818;28;20447;-62
2024/02/01 11:09:48;;;;;;;2.43;2.23;;;9.60;99.90;;;;;;5006791;28;20457;-63
2024/02/01 11:12:22;;;;;;;2.70;2.50;;;9.60;99.90;;;;;;5008291;28;20530;-62
2024/02/01 11:14:49;;;;;;;4.00;2.80;;;9.50;99.90;;;;;;5008909;28;20497;-64
2024/02/01 11:17:19;;;;;;;3.30;3.00;;;9.50;99.90;;;;;;5008637;28;20530;-63
2024/02/01 11:19:49;;;;;;;3.43;3.17;;;9.60;99.90;;;;;;5008320;28;20442;-63
2024/02/01 11:22:18;;;;;;;7.90;2.70;;;9.60;99.90;;;;;;5008178;28;20526;-64
2024/02/01 11:24:45;;;;;;;3.47;3.17;;;9.60;99.90;;;;;;5008040;28;21062;-62
2024/02/01 11:27:13;;;;;;;3.20;3.00;;;9.60;99.90;;;;;;5008818;28;20443;-63
2024/02/01 11:29:45;;;;;;;3.30;3.10;;;9.60;99.90;;;;;;5007993;28;20450;-63
2024/02/01 11:32:16;;;;;;;3.00;2.80;;;9.60;99.90;;;;;;5008042;28;20493;-63
2024/02/01 11:34:49;;;;;;;3.37;3.10;;;9.70;99.90;;;;;;5008106;28;20485;-63
2024/02/01 11:37:18;;;;;;;3.90;3.60;;;9.80;99.90;;;;;;5008424;28;20474;-64
2024/02/01 11:39:46;;;;;;;5.23;4.60;;;9.80;99.90;;;;;;5007443;28;20458;-64
2024/02/01 11:42:13;;;;;;;3.50;3.20;;;9.90;99.90;;;;;;5007391;28;20498;-64
2024/02/01 11:44:40;;;;;;;3.63;3.33;;;10.20;99.90;;;;;;5007688;28;20831;-64
2024/02/01 11:47:08;;;;;;;3.03;2.83;;;10.40;99.90;;;;;;5008053;28;20443;-63
2024/02/01 11:49:36;;;;;;;3.47;3.27;;;10.70;99.90;;;;;;5007426;28;20541;-64
2024/02/01 11:52:15;;;;;;;3.50;3.13;;;10.90;99.90;;;;;;5007010;28;20869;-64
2024/02/01 11:54:46;;;;;;;3.60;3.30;;;11.20;99.90;;;;;;5007765;28;20557;-63
2024/02/01 11:57:16;;;;;;;3.33;3.13;;;11.40;99.90;;;;;;5008366;28;20450;-64
2024/02/01 11:59:43;;;;;;;3.80;3.50;;;11.50;99.90;;;;;;5007462;28;20968;-63
2024/02/01 12:02:10;;;;;;;3.27;3.00;;;11.60;99.90;;;;;;5006917;28;20577;-62
2024/02/01 12:04:40;;;;;;;3.93;3.00;;;11.70;99.90;;;;;;5007542;28;20473;-64
2024/02/01 12:07:08;;;;;;;4.10;3.70;;;11.80;99.90;;;;;;5008049;28;20976;-63
2024/02/01 12:09:36;;;;;;;3.00;2.80;;;;;;;;;;5006603;28;20505;-63
2024/02/01 12:12:05;;;;;;;3.03;2.73;;;12.20;99.90;;;;;;5006616;28;20454;-63
2024/02/01 12:14:33;;;;;;;3.80;3.50;;;12.40;99.90;;;;;;5006502;28;20485;-63
2024/02/01 12:17:02;;;;;;;4.13;2.70;;;12.50;99.90;;;;;;4999531;28;20466;-64
2024/02/01 12:19:37;;;;;;;3.10;2.87;;;12.80;99.90;;;;;;5006496;28;20456;-64
2024/02/01 12:22:04;;;;;;;3.17;2.90;;;13.10;99.90;;;;;;4995955;28;20512;-63
2024/02/01 12:24:34;;;;;;;2.87;2.63;;;13.20;99.90;;;;;;5005515;28;20466;-64
2024/02/01 12:27:02;;;;;;;4.40;3.40;;;13.10;99.90;;;;;;5007590;28;20474;-64
2024/02/01 12:29:30;;;;;;;2.93;2.73;;;12.90;99.90;;;;;;5006916;28;20459;-63
2024/02/01 12:31:58;;;;;;;3.33;3.03;;;12.70;99.90;;;;;;4999356;28;20537;-64
2024/02/01 12:34:25;;;;;;;3.17;2.87;;;12.60;99.90;;;;;;5002538;28;21038;-63
2024/02/01 12:36:52;;;;;;;2.77;2.67;;;12.40;99.90;;;;;;5002131;28;20462;-63
2024/02/01 12:39:19;;;;;;;2.83;2.63;;;12.30;99.90;;;;;;5001586;28;20457;-63
2024/02/01 12:41:46;;;;;;;2.97;2.73;;;12.00;99.90;;;;;;5005394;28;20579;-62
2024/02/01 12:44:14;;;;;;;28.80;25.73;;;11.80;99.90;;;;;;5002025;28;20496;-63
2024/02/01 12:46:43;;;;;;;4.53;4.23;;;11.70;99.90;;;;;;5005745;28;20466;-63
2024/02/01 12:49:12;;;;;;;3.73;3.43;;;11.60;99.90;;;;;;5007745;28;20526;-64
2024/02/01 12:51:41;;;;;;;3.23;2.97;;;11.40;99.90;;;;;;5005926;28;20573;-64
2024/02/01 12:54:09;;;;;;;4.47;3.43;;;11.30;99.90;;;;;;5007282;28;20443;-64
2024/02/01 12:56:36;;;;;;;23.10;7.70;;;11.20;99.90;;;;;;5006098;28;20538;-64
2024/02/01 12:59:04;;;;;;;11.57;6.60;;;11.30;99.90;;;;;;4996956;28;20457;-63
2024/02/01 13:01:32;;;;;;;4.20;3.87;;;11.80;99.90;;;;;;5005767;28;20894;-64
2024/02/01 13:04:01;;;;;;;3.00;2.80;;;12.40;99.90;;;;;;5010071;28;20459;-64
2024/02/01 13:06:28;;;;;;;5.83;3.77;;;13.00;99.90;;;;;;5002961;28;20789;-64
2024/02/01 13:08:55;;;;;;;3.80;3.50;;;13.20;99.90;;;;;;5008195;28;20956;-63
2024/02/01 13:11:27;;;;;;;4.20;3.23;;;13.10;99.90;;;;;;5004580;28;20462;-64
2024/02/01 13:13:56;;;;;;;3.43;3.13;;;12.90;99.90;;;;;;5008806;28;20450;-64
2024/02/01 13:16:24;;;;;;;3.30;3.03;;;12.60;99.90;;;;;;5004807;28;20454;-62
2024/02/01 13:18:51;;;;;;;3.80;3.50;;;12.40;99.90;;;;;;5007300;28;20462;-63
2024/02/01 13:21:19;;;;;;;4.10;3.80;;;12.10;99.90;;;;;;5005986;28;20458;-63
2024/02/01 13:23:47;;;;;;;3.90;3.50;;;11.90;99.90;;;;;;5009986;28;20500;-63
2024/02/01 13:26:14;;;;;;;3.07;2.87;;;11.70;99.90;;;;;;5009173;28;20470;-63
2024/02/01 13:28:41;;;;;;;3.33;2.90;;;11.40;99.90;;;;;;5010205;28;20554;-63
2024/02/01 13:31:08;;;;;;;3.00;2.80;;;11.30;99.90;;;;;;5009052;28;20485;-63
2024/02/01 13:33:36;;;;;;;4.00;3.37;;;11.20;99.90;;;;;;5001645;28;20993;-63
2024/02/01 13:36:03;;;;;;;3.60;2.90;;;11.10;99.90;;;;;;5001825;28;20486;-63
2024/02/01 13:38:31;;;;;;;4.43;4.10;;;11.00;99.90;;;;;;5009025;28;20446;-64
2024/02/01 13:40:58;;;;;;;3.97;3.67;;;11.00;99.90;;;;;;5006326;28;20534;-64
2024/02/01 13:43:25;;;;;;;3.83;3.53;;;11.00;99.90;;;;;;5005905;28;20522;-64